createdAt,value
2019-04-26T00:00:18.280Z,1.00
2019-04-26T00:03:10.683Z,0.75
2019-04-26T00:06:03.366Z,0.68
2019-04-26T00:08:57.195Z,1.00
2019-04-26T00:12:14.434Z,0.93
2019-04-26T00:15:18.469Z,1.10
2019-04-26T00:18:12.820Z,1.30
2019-04-26T00:21:04.998Z,1.05
2019-04-26T00:23:57.798Z,1.10
2019-04-26T00:26:50.598Z,1.12
2019-04-26T00:29:43.400Z,1.27
2019-04-26T00:32:36.198Z,1.20
2019-04-26T00:35:30.033Z,1.20
2019-04-26T00:38:22.820Z,1.17
2019-04-26T00:41:16.387Z,1.35
2019-04-26T00:44:08.422Z,1.10
2019-04-26T00:47:01.222Z,1.40
2019-04-26T00:49:54.279Z,1.40
2019-04-26T00:52:54.587Z,1.30
2019-04-26T00:55:47.304Z,1.25
2019-04-26T00:58:40.363Z,1.10
2019-04-26T01:01:29.581Z,1.10
2019-04-26T01:04:23.022Z,1.07
2019-04-26T01:07:15.738Z,1.37
2019-04-26T01:10:08.489Z,0.85
2019-04-26T01:13:01.291Z,1.32
2019-04-26T01:15:54.855Z,1.00
2019-04-26T01:18:53.798Z,1.10
2019-04-26T01:21:46.604Z,1.05
2019-04-26T01:24:39.400Z,0.90
2019-04-26T01:27:28.358Z,1.17
2019-04-26T01:30:21.698Z,1.12
2019-04-26T01:33:10.374Z,1.17
2019-04-26T01:36:12.856Z,1.35
2019-04-26T01:38:56.743Z,1.15
2019-04-26T01:41:53.382Z,1.00
2019-04-26T01:44:57.702Z,1.20
2019-04-26T01:47:50.511Z,0.90
2019-04-26T01:50:43.338Z,1.00
2019-04-26T01:53:36.103Z,1.00
2019-04-26T01:56:31.366Z,1.10
2019-04-26T01:59:25.228Z,1.00
2019-04-26T02:02:28.325Z,1.02
2019-04-26T02:05:23.865Z,1.12
2019-04-26T02:08:15.743Z,0.90
2019-04-26T02:11:08.774Z,0.72
2019-04-26T02:14:01.834Z,1.10
2019-04-26T02:16:55.143Z,0.93
2019-04-26T02:19:48.728Z,0.80
2019-04-26T02:22:49.193Z,0.70
2019-04-26T02:25:42.247Z,0.88
2019-04-26T02:28:35.051Z,0.80
2019-04-26T02:31:30.888Z,0.95
2019-04-26T02:34:22.183Z,0.98
2019-04-26T02:37:14.984Z,0.80
2019-04-26T02:40:07.803Z,1.00
2019-04-26T02:43:01.352Z,1.05
2019-04-26T02:46:11.531Z,0.98
2019-04-26T02:49:38.527Z,0.78
2019-04-26T02:52:31.993Z,1.20
2019-04-26T02:55:25.601Z,0.85
2019-04-26T02:58:18.601Z,1.02
2019-04-26T03:01:12.426Z,0.95
2019-04-26T03:04:05.483Z,1.00
2019-04-26T03:07:03.523Z,1.20
2019-04-26T03:09:52.122Z,1.07
2019-04-26T03:12:45.671Z,1.20
2019-04-26T03:15:50.761Z,1.10
2019-04-26T03:19:08.391Z,0.90
2019-04-26T03:22:07.592Z,0.90
2019-04-26T03:24:57.608Z,0.90
2019-04-26T03:28:00.647Z,1.10
2019-04-26T03:30:55.232Z,1.10
2019-04-26T03:34:00.121Z,0.95
2019-04-26T03:37:18.996Z,1.65
2019-04-26T03:40:03.815Z,1.07
2019-04-26T03:43:06.860Z,0.90
2019-04-26T03:46:11.431Z,1.12
2019-04-26T03:49:09.352Z,1.20
2019-04-26T03:52:11.113Z,1.60
2019-04-26T03:55:05.192Z,0.85
2019-04-26T03:58:04.914Z,1.20
2019-04-26T04:01:04.111Z,1.00
2019-04-26T04:04:17.138Z,1.15
2019-04-26T04:07:10.187Z,0.80
2019-04-26T04:10:03.280Z,0.98
2019-04-26T04:12:59.119Z,1.00
2019-04-26T04:15:54.484Z,1.22
2019-04-26T04:18:47.664Z,1.15
2019-04-26T04:21:51.079Z,0.80
2019-04-26T04:25:07.687Z,0.88
2019-04-26T04:28:03.453Z,1.07
2019-04-26T04:31:06.349Z,1.37
2019-04-26T04:37:15.494Z,0.90
2019-04-26T04:40:19.816Z,0.93
2019-04-26T04:43:36.682Z,1.40
2019-04-26T04:46:53.990Z,1.50
2019-04-26T04:49:52.627Z,1.67
2019-04-26T04:52:55.016Z,1.35
2019-04-26T04:55:54.472Z,1.30
2019-04-26T04:58:50.350Z,1.98
2019-04-26T05:01:57.480Z,1.70
2019-04-26T05:04:54.888Z,1.65
2019-04-26T05:08:05.415Z,1.55
2019-04-26T05:10:54.128Z,1.50
2019-04-26T05:13:52.045Z,1.10
2019-04-26T05:17:04.749Z,1.70
2019-04-26T05:20:09.064Z,1.80
2019-04-26T05:23:14.407Z,1.72
2019-04-26T05:26:26.919Z,1.60
2019-04-26T05:29:30.215Z,0.90
2019-04-26T05:32:34.536Z,1.07
2019-04-26T05:35:37.832Z,1.77
2019-04-26T05:38:35.253Z,0.95
2019-04-26T05:41:42.120Z,1.62
2019-04-26T05:44:49.806Z,1.07
2019-04-26T05:48:08.376Z,0.93
2019-04-26T05:51:05.576Z,1.57
2019-04-26T05:54:33.194Z,1.52
2019-04-26T05:57:41.099Z,1.30
2019-04-26T06:00:57.868Z,1.30
2019-04-26T06:04:20.456Z,1.60
2019-04-26T06:07:18.890Z,1.47
2019-04-26T06:10:30.887Z,1.37
2019-04-26T06:13:45.190Z,1.00
2019-04-26T06:17:01.366Z,1.60
2019-04-26T06:20:22.571Z,1.22
2019-04-26T06:23:18.121Z,1.00
2019-04-26T06:26:21.676Z,0.90
2019-04-26T06:29:17.551Z,1.42
2019-04-26T06:32:06.502Z,1.15
2019-04-26T06:35:20.517Z,1.20
2019-04-26T06:38:55.717Z,1.50
2019-04-26T06:42:20.647Z,1.15
2019-04-26T06:45:37.776Z,1.60
2019-04-26T06:48:37.734Z,1.45
2019-04-26T06:51:32.585Z,1.20
2019-04-26T06:54:33.580Z,1.05
2019-04-26T06:57:52.743Z,1.17
2019-04-26T07:00:41.960Z,1.20
2019-04-26T07:03:47.560Z,1.00
2019-04-26T07:06:40.621Z,1.10
2019-04-26T07:09:33.675Z,1.05
2019-04-26T07:12:48.233Z,1.12
2019-04-26T07:16:19.700Z,0.98
2019-04-26T07:19:18.438Z,1.12
2019-04-26T07:22:55.722Z,1.50
2019-04-26T07:26:03.798Z,1.22
2019-04-26T07:29:12.041Z,1.07
2019-04-26T07:32:09.532Z,1.07
2019-04-26T07:35:07.120Z,1.05
2019-04-26T07:38:11.687Z,1.07
2019-04-26T07:41:35.473Z,1.25
2019-04-26T07:44:50.283Z,1.62
2019-04-26T07:47:54.344Z,1.15
2019-04-26T07:50:51.242Z,1.27
2019-04-26T07:53:51.466Z,1.60
2019-04-26T07:56:50.669Z,1.15
2019-04-26T08:00:10.845Z,1.60
2019-04-26T08:03:13.385Z,1.10
2019-04-26T08:06:08.233Z,1.42
2019-04-26T08:09:03.154Z,1.00
2019-04-26T08:11:51.223Z,1.20
2019-04-26T08:15:06.140Z,1.17
2019-04-26T08:18:16.040Z,1.02
2019-04-26T08:21:20.359Z,1.10
2019-04-26T08:24:21.877Z,1.92
2019-04-26T08:27:32.587Z,1.62
2019-04-26T08:30:26.153Z,1.30
2019-04-26T08:33:19.466Z,1.95
2019-04-26T08:36:12.773Z,2.27
2019-04-26T08:39:05.956Z,1.25
2019-04-26T08:41:58.374Z,0.95
2019-04-26T08:45:04.413Z,1.40
2019-04-26T08:48:07.907Z,1.10
2019-04-26T08:50:59.207Z,1.40
2019-04-26T08:56:58.470Z,1.20
2019-04-26T08:59:52.807Z,1.10
2019-04-26T09:03:11.809Z,0.90
2019-04-26T09:06:17.961Z,1.20
2019-04-26T09:09:10.889Z,1.20
2019-04-26T09:12:08.412Z,0.90
2019-04-26T09:14:58.023Z,1.22
2019-04-26T09:17:50.833Z,0.93
2019-04-26T09:20:44.322Z,0.85
2019-04-26T09:23:50.886Z,1.02
2019-04-26T09:26:52.263Z,1.07
2019-04-26T09:30:12.456Z,1.45
2019-04-26T09:33:16.819Z,1.30
2019-04-26T09:36:09.832Z,0.72
2019-04-26T09:39:03.859Z,0.90
2019-04-26T09:41:56.980Z,0.95
2019-04-26T09:45:00.263Z,1.20
2019-04-26T09:48:02.536Z,0.88
2019-04-26T09:51:02.003Z,1.07
2019-04-26T09:53:55.049Z,0.90
2019-04-26T09:56:48.104Z,1.07
2019-04-26T09:59:42.439Z,0.90
2019-04-26T10:02:35.756Z,0.95
2019-04-26T10:05:28.820Z,0.98
2019-04-26T10:08:22.630Z,1.35
2019-04-26T10:11:15.686Z,1.05
2019-04-26T10:14:23.595Z,1.10
2019-04-26T10:17:31.494Z,1.30
2019-04-26T10:20:24.296Z,1.20
2019-04-26T10:23:17.101Z,1.25
2019-04-26T10:26:10.155Z,0.90
2019-04-26T10:29:02.955Z,0.75
2019-04-26T10:31:55.757Z,0.80
2019-04-26T10:34:48.986Z,0.80
2019-04-26T10:37:44.037Z,0.93
2019-04-26T10:40:35.936Z,0.90
2019-04-26T10:43:29.488Z,1.00
2019-04-26T10:46:15.738Z,0.90
2019-04-26T10:49:11.988Z,0.90
2019-04-26T10:52:02.024Z,0.70
2019-04-26T10:54:55.591Z,0.50
2019-04-26T10:57:51.976Z,0.75
2019-04-26T11:00:52.648Z,0.70
2019-04-26T11:03:44.489Z,0.60
2019-04-26T11:06:37.290Z,0.88
2019-04-26T11:09:31.371Z,0.90
2019-04-26T11:12:24.167Z,0.60
2019-04-26T11:15:17.223Z,1.02
2019-04-26T11:18:10.283Z,0.85
2019-04-26T11:21:04.361Z,0.60
2019-04-26T11:23:57.162Z,0.78
2019-04-26T11:26:51.242Z,0.75
2019-04-26T11:29:53.631Z,0.68
2019-04-26T11:32:38.231Z,0.65
2019-04-26T11:35:33.167Z,0.60
2019-04-26T11:38:26.866Z,0.85
2019-04-26T11:41:16.265Z,0.65
2019-04-26T11:44:09.068Z,0.30
2019-04-26T11:47:03.266Z,0.95
2019-04-26T11:49:54.949Z,0.60
2019-04-26T11:52:48.232Z,0.70
2019-04-26T11:55:42.057Z,0.60
2019-04-26T11:58:29.246Z,0.60
2019-04-26T12:01:22.792Z,0.80
2019-04-26T12:04:38.890Z,0.70
2019-04-26T12:07:35.532Z,0.53
2019-04-26T12:10:29.896Z,0.50
2019-04-26T12:13:24.919Z,0.30
2019-04-26T12:16:18.879Z,0.55
2019-04-26T12:19:09.543Z,0.50
2019-04-26T12:22:04.374Z,0.60
2019-04-26T12:24:55.921Z,0.70
2019-04-26T12:27:51.487Z,0.40
2019-04-26T12:30:43.053Z,0.50
2019-04-26T12:33:39.211Z,0.70
2019-04-26T12:36:29.172Z,0.45
2019-04-26T12:39:22.743Z,0.30
2019-04-26T12:42:16.305Z,0.80
2019-04-26T12:45:29.579Z,0.30
2019-04-26T12:48:24.423Z,0.40
2019-04-26T12:51:17.736Z,0.40
2019-04-26T12:54:10.548Z,0.42
2019-04-26T12:57:05.821Z,0.57
2019-04-26T12:59:57.531Z,0.30
2019-04-26T13:02:50.256Z,0.40
2019-04-26T13:05:42.034Z,0.40
2019-04-26T13:08:34.794Z,0.45
2019-04-26T13:11:48.808Z,0.40
2019-04-26T13:14:44.411Z,0.30
2019-04-26T13:17:39.045Z,0.70
2019-04-26T13:20:28.737Z,0.30
2019-04-26T13:23:20.806Z,0.57
2019-04-26T13:26:13.867Z,0.45
2019-04-26T13:29:06.921Z,0.50
2019-04-26T13:31:59.980Z,0.55
2019-04-26T13:34:53.046Z,0.57
2019-04-26T13:37:46.089Z,0.53
2019-04-26T13:40:40.271Z,0.60
2019-04-26T13:43:31.700Z,0.42
2019-04-26T13:46:32.424Z,0.72
2019-04-26T13:49:30.855Z,0.40
2019-04-26T13:52:23.659Z,0.47
2019-04-26T13:55:16.711Z,0.55
2019-04-26T13:58:09.767Z,0.40
2019-04-26T14:01:02.567Z,0.70
2019-04-26T14:03:55.622Z,0.50
2019-04-26T14:06:48.679Z,0.50
2019-04-26T14:09:41.737Z,0.40
2019-04-26T14:12:35.559Z,0.50
2019-04-26T14:15:28.616Z,0.70
2019-04-26T14:18:21.671Z,0.60
2019-04-26T14:21:14.470Z,0.37
2019-04-26T14:24:19.609Z,0.45
2019-04-26T14:27:15.106Z,0.42
2019-04-26T14:30:06.474Z,0.95
2019-04-26T14:32:57.272Z,0.68
2019-04-26T14:35:50.610Z,0.53
2019-04-26T14:38:42.538Z,0.50
2019-04-26T14:41:35.363Z,0.72
2019-04-26T14:44:31.338Z,0.50
2019-04-26T14:47:21.449Z,0.50
2019-04-26T14:50:14.727Z,0.40
2019-04-26T14:53:07.305Z,0.62
2019-04-26T14:56:00.358Z,0.50
2019-04-26T14:58:53.420Z,0.82
2019-04-26T15:02:10.304Z,0.50
2019-04-26T15:05:09.207Z,0.40
2019-04-26T15:08:03.734Z,0.60
2019-04-26T15:11:00.817Z,0.50
2019-04-26T15:13:47.122Z,0.70
2019-04-26T15:16:41.470Z,0.70
2019-04-26T15:19:35.042Z,0.72
2019-04-26T15:22:27.049Z,0.45
2019-04-26T15:25:20.364Z,0.60
2019-04-26T15:28:11.942Z,0.40
2019-04-26T15:31:03.662Z,0.70
2019-04-26T15:33:56.710Z,0.60
2019-04-26T15:36:49.767Z,0.70
2019-04-26T15:39:58.093Z,0.57
2019-04-26T15:43:02.626Z,0.60
2019-04-26T15:45:59.912Z,0.90
2019-04-26T15:49:10.127Z,0.88
2019-04-26T15:52:03.190Z,1.07
2019-04-26T15:54:58.958Z,0.75
2019-04-26T15:57:49.289Z,0.88
2019-04-26T16:00:42.891Z,1.12
2019-04-26T16:03:36.867Z,1.12
2019-04-26T16:06:28.205Z,0.90
2019-04-26T16:09:22.496Z,1.00
2019-04-26T16:12:14.054Z,1.10
2019-04-26T16:15:11.402Z,1.20
2019-04-26T16:17:59.666Z,1.65
2019-04-26T16:20:53.380Z,0.90
2019-04-26T16:23:50.995Z,0.98
2019-04-26T16:26:38.571Z,1.40
2019-04-26T16:29:36.492Z,1.45
2019-04-26T16:32:40.556Z,1.25
2019-04-26T16:35:36.423Z,1.47
2019-04-26T16:38:39.214Z,1.70
2019-04-26T16:41:36.045Z,1.37
2019-04-26T16:44:28.232Z,1.00
2019-04-26T16:47:13.243Z,0.90
2019-04-26T16:50:05.543Z,1.20
2019-04-26T16:53:05.513Z,1.22
2019-04-26T16:55:54.728Z,1.40
2019-04-26T16:58:47.783Z,0.90
2019-04-26T17:01:43.567Z,1.05
2019-04-26T17:04:32.249Z,1.47
2019-04-26T17:07:27.333Z,1.00
2019-04-26T17:10:16.546Z,1.07
2019-04-26T17:13:05.899Z,1.15
2019-04-26T17:15:59.983Z,1.07
2019-04-26T17:18:55.604Z,0.80
2019-04-26T17:21:48.651Z,0.93
2019-04-26T17:24:53.362Z,1.15
2019-04-26T17:27:47.172Z,1.10
2019-04-26T17:30:42.492Z,1.20
2019-04-26T17:33:33.677Z,1.20
2019-04-26T17:36:26.729Z,1.62
2019-04-26T17:39:22.311Z,0.98
2019-04-26T17:42:13.865Z,1.47
2019-04-26T17:45:07.224Z,1.40
2019-04-26T17:48:01.450Z,1.60
2019-04-26T17:51:51.693Z,1.10
2019-04-26T17:54:48.923Z,1.42
2019-04-26T17:57:34.649Z,1.10
2019-04-26T18:00:21.055Z,1.00
2019-04-26T18:03:14.839Z,1.87
2019-04-26T18:06:09.415Z,1.35
2019-04-26T18:08:55.275Z,1.95
2019-04-26T18:11:47.943Z,1.60
2019-04-26T18:14:41.016Z,1.50
2019-04-26T18:17:51.207Z,1.40
2019-04-26T18:20:50.222Z,2.33
2019-04-26T18:23:44.673Z,1.52
2019-04-26T18:26:37.291Z,1.90
2019-04-26T18:29:30.600Z,1.52
2019-04-26T18:32:24.453Z,1.60
2019-04-26T18:35:13.540Z,2.47
2019-04-26T18:38:08.535Z,1.45
2019-04-26T18:41:01.370Z,2.15
2019-04-26T18:43:58.835Z,1.45
2019-04-26T18:46:55.595Z,1.82
2019-04-26T18:49:52.203Z,1.02
2019-04-26T18:52:42.726Z,1.95
2019-04-26T18:55:41.158Z,2.40
2019-04-26T18:58:37.772Z,1.90
2019-04-26T19:01:29.938Z,1.95
2019-04-26T19:04:19.306Z,2.05
2019-04-26T19:07:16.007Z,2.25
2019-04-26T19:10:05.465Z,2.45
2019-04-26T19:12:59.956Z,2.80
2019-04-26T19:16:04.074Z,1.98
2019-04-26T19:19:22.555Z,2.30
2019-04-26T19:22:15.989Z,2.10
2019-04-26T19:25:18.926Z,1.80
2019-04-26T19:28:04.437Z,2.00
2019-04-26T19:30:55.218Z,1.90
2019-04-26T19:33:51.736Z,2.15
2019-04-26T19:36:42.093Z,1.75
2019-04-26T19:39:35.762Z,1.98
2019-04-26T19:42:30.957Z,2.22
2019-04-26T19:45:23.560Z,1.52
2019-04-26T19:48:26.090Z,2.00
2019-04-26T19:51:29.639Z,2.52
2019-04-26T19:54:35.613Z,1.57
2019-04-26T19:57:39.100Z,1.80
2019-04-26T20:00:32.291Z,1.62
2019-04-26T20:03:24.903Z,1.77
2019-04-26T20:06:18.911Z,1.75
2019-04-26T20:09:11.925Z,1.75
2019-04-26T20:11:59.357Z,1.12
2019-04-26T20:14:58.037Z,1.20
2019-04-26T20:17:52.828Z,1.82
2019-04-26T20:20:42.474Z,1.80
2019-04-26T20:23:38.352Z,1.30
2019-04-26T20:26:29.098Z,1.67
2019-04-26T20:29:29.848Z,1.15
2019-04-26T20:32:34.152Z,2.05
2019-04-26T20:35:31.779Z,1.25
2019-04-26T20:38:23.335Z,1.50
2019-04-26T20:41:16.418Z,1.37
2019-04-26T20:44:23.876Z,1.42
2019-04-26T20:47:17.423Z,1.80
2019-04-26T20:50:03.309Z,1.50
2019-04-26T20:53:00.786Z,1.77
2019-04-26T20:55:49.357Z,1.70
2019-04-26T20:58:50.095Z,1.35
2019-04-26T21:02:02.702Z,1.75
2019-04-26T21:04:46.008Z,1.55
2019-04-26T21:07:36.688Z,1.52
2019-04-26T21:10:29.482Z,1.20
2019-04-26T21:13:23.695Z,1.60
2019-04-26T21:16:15.711Z,1.87
2019-04-26T21:19:02.854Z,1.80
2019-04-26T21:21:55.815Z,1.98
2019-04-26T21:24:50.620Z,1.20
2019-04-26T21:27:53.703Z,1.32
2019-04-26T21:30:57.003Z,1.12
2019-04-26T21:33:56.968Z,1.30
2019-04-26T21:37:22.211Z,1.30
2019-04-26T21:40:26.111Z,1.32
2019-04-26T21:43:16.838Z,1.20
2019-04-26T21:46:14.380Z,1.20
2019-04-26T21:49:03.652Z,1.10
2019-04-26T21:51:56.012Z,1.07
2019-04-26T21:54:53.217Z,1.30
2019-04-26T21:57:41.864Z,1.25
2019-04-26T22:01:01.033Z,1.50
2019-04-26T22:04:06.118Z,1.20
2019-04-26T22:07:07.850Z,1.20
2019-04-26T22:10:20.648Z,1.50
2019-04-26T22:13:14.476Z,1.10
2019-04-26T22:16:31.868Z,0.95
2019-04-26T22:19:23.261Z,1.40
2019-04-26T22:22:24.882Z,1.05
2019-04-26T22:25:17.928Z,1.67
2019-04-26T22:28:03.456Z,1.55
2019-04-26T22:30:53.493Z,1.25
2019-04-26T22:33:45.320Z,1.20
2019-04-26T22:36:38.631Z,1.47
2019-04-26T22:39:40.008Z,1.30
2019-04-26T22:42:26.794Z,1.50
2019-04-26T22:45:33.672Z,1.57
2019-04-26T22:48:38.250Z,1.40
2019-04-26T22:51:33.663Z,1.60
2019-04-26T22:54:24.968Z,1.30
2019-04-26T22:57:16.684Z,1.00
2019-04-26T23:00:09.447Z,1.40
2019-04-26T23:03:09.928Z,1.67
2019-04-26T23:06:03.616Z,1.40
2019-04-26T23:08:56.051Z,1.07
2019-04-26T23:11:49.096Z,1.22
2019-04-26T23:14:56.488Z,1.52
2019-04-26T23:18:03.760Z,1.22
2019-04-26T23:21:07.660Z,1.20
2019-04-26T23:23:58.183Z,1.40
2019-04-26T23:26:51.243Z,1.50
2019-04-26T23:29:56.809Z,1.50
2019-04-26T23:32:48.468Z,1.70
2019-04-26T23:35:43.742Z,1.45
2019-04-26T23:38:36.285Z,1.30
2019-04-26T23:41:23.699Z,1.65
2019-04-26T23:44:13.224Z,1.55
2019-04-26T23:47:18.392Z,1.72
2019-04-26T23:49:58.246Z,1.47
2019-04-26T23:52:52.877Z,1.65
2019-04-26T23:55:45.212Z,1.37
2019-04-26T23:58:36.647Z,1.98
